Time;durP1;ratioP1;P1;durP2;ratioP2;P2;SDS_P1;SDS_P2;PMS_P1;PMS_P2;Temp;Humidity;BMP_temperature;BMP_pressure;BME280_temperature;BME280_humidity;BME280_pressure;Samples;Min_cycle;Max_cycle;Signal;HPM_P1;HPM_P2
2023/11/25 00:00:46;;;;;;;65.23;33.77;;;;;;;5.88;65.70;98557.91;124870;1107;102170;-81
2023/11/25 00:03:38;;;;;;;64.10;34.07;;;;;;;5.88;66.08;98570.93;124749;1109;104456;-80
2023/11/25 00:06:10;;;;;;;66.00;32.57;;;;;;;5.88;66.27;98563.13;124747;1109;102048;-79
2023/11/25 00:08:42;;;;;;;60.80;32.30;;;;;;;5.88;66.02;98571.80;124710;1108;102119;-79
2023/11/25 00:11:13;;;;;;;64.27;33.63;;;;;;;5.88;66.08;98570.93;124786;1106;104239;-79
2023/11/25 00:13:45;;;;;;;66.03;34.43;;;;;;;5.86;66.42;98563.09;124680;1108;101807;-79
2023/11/25 00:16:16;;;;;;;66.00;34.63;;;;;;;5.86;66.36;98573.50;124798;1109;104284;-78
2023/11/25 00:18:48;;;;;;;73.40;36.37;;;;;;;5.86;66.33;98567.39;124869;1109;104294;-79
2023/11/25 00:21:20;;;;;;;64.30;34.27;;;;;;;5.82;66.05;98568.18;124885;1107;102551;-78
2023/11/25 00:23:52;;;;;;;68.27;34.77;;;;;;;5.81;65.98;98563.81;124665;1107;102072;-80
2023/11/25 00:26:25;;;;;;;64.37;34.67;;;;;;;5.81;66.46;98574.22;124541;1109;102051;-80
2023/11/25 00:29:01;;;;;;;65.87;34.30;;;;;;;5.83;66.31;98572.52;124851;1108;102055;-82
2023/11/25 00:31:33;;;;;;;68.90;35.23;;;;;;;5.84;66.60;98566.48;124824;1109;102226;-80
2023/11/25 00:34:04;;;;;;;65.50;34.13;;;;;;;5.85;66.63;98565.66;124924;1106;102093;-80
2023/11/25 00:36:36;;;;;;;69.77;34.07;;;;;;;5.87;66.57;98564.83;124891;1107;104197;-80
2023/11/25 00:39:07;;;;;;;62.70;33.73;;;;;;;5.88;66.50;98561.39;124852;1109;104207;-79
2023/11/25 00:41:39;;;;;;;63.57;34.13;;;;;;;5.90;66.63;98556.22;124933;1105;102060;-80
2023/11/25 00:44:11;;;;;;;65.17;34.30;;;;;;;5.91;66.79;98555.38;124700;1108;102099;-78
2023/11/25 00:46:43;;;;;;;65.17;33.03;;;;;;;5.92;66.74;98558.02;124715;1108;102367;-80
2023/11/25 00:49:15;;;;;;;62.83;33.23;;;;;;;5.92;66.97;98558.02;124703;1109;104360;-79
2023/11/25 00:51:46;;;;;;;62.13;32.70;;;;;;;5.93;66.88;98557.16;124820;1109;101913;-80
2023/11/25 00:54:18;;;;;;;62.60;33.93;;;;;;;5.94;67.71;98565.87;124869;1108;104392;-78
2023/11/25 00:56:49;;;;;;;62.10;32.33;;;;;;;5.94;67.00;98571.94;124908;1109;107148;-79
2023/11/25 00:59:21;;;;;;;63.47;32.97;;;;;;;5.95;66.94;98578.02;124872;1109;101985;-78
2023/11/25 01:01:52;;;;;;;61.93;33.60;;;;;;;5.97;66.81;98589.41;124994;1105;102105;-80
2023/11/25 01:04:24;;;;;;;64.90;32.27;;;;;;;5.98;67.32;98595.48;124939;1108;104313;-78
2023/11/25 01:06:56;;;;;;;60.27;32.60;;;;;;;5.96;66.95;98590.20;124778;1109;118510;-80
2023/11/25 01:09:30;;;;;;;60.80;32.93;;;;;;;5.95;67.11;98585.83;124578;1108;104355;-78
2023/11/25 01:12:02;;;;;;;60.77;31.97;;;;;;;5.91;67.16;98582.28;124708;1109;104195;-79
2023/11/25 01:14:34;;;;;;;63.87;31.57;;;;;;;5.90;67.27;98577.05;124749;1108;104271;-79
2023/11/25 01:17:06;;;;;;;64.17;33.80;;;;;;;5.90;67.67;98569.23;124661;1107;102049;-80
2023/11/25 01:19:39;;;;;;;67.10;35.83;;;;;;;5.87;67.14;98563.95;124598;1107;104188;-80
2023/11/25 01:22:11;;;;;;;72.90;38.30;;;;;;;5.84;67.19;98563.88;124586;1108;104461;-80
2023/11/25 01:24:42;;;;;;;75.43;38.97;;;;;;;5.79;67.49;98555.97;124515;1109;104165;-81
2023/11/25 01:27:15;;;;;;;77.35;41.00;;;;;;;5.72;67.43;98554.95;124495;1109;104319;-80
2023/11/25 01:29:46;;;;;;;83.50;40.67;;;;;;;5.69;67.75;98551.41;124492;1109;104246;-78
2023/11/25 01:32:19;;;;;;;72.13;39.63;;;;;;;5.66;67.83;98553.94;124605;1109;104336;-80
2023/11/25 01:34:51;;;;;;;81.57;42.40;;;;;;;5.66;67.80;98561.73;124687;1109;102234;-80
2023/11/25 01:37:26;;;;;;;83.53;41.93;;;;;;;5.66;67.86;98562.61;124709;1108;104243;-79
2023/11/25 01:39:58;;;;;;;80.93;41.80;;;;;;;5.64;67.92;98556.50;124788;1109;102595;-79
2023/11/25 01:42:29;;;;;;;79.87;41.67;;;;;;;5.64;67.49;98552.99;124869;1109;104143;-81
2023/11/25 01:45:01;;;;;;;78.63;41.70;;;;;;;5.64;67.79;98559.09;124828;1108;104223;-80
2023/11/25 01:47:34;;;;;;;77.87;40.77;;;;;;;5.63;67.61;98557.33;124717;1109;102186;-80
2023/11/25 01:50:06;;;;;;;72.90;40.63;;;;;;;5.63;67.92;98561.66;124798;1109;102036;-79
2023/11/25 01:52:38;;;;;;;68.43;39.27;;;;;;;5.61;67.72;98553.82;124935;1108;104249;-80
2023/11/25 01:55:11;;;;;;;74.60;38.73;;;;;;;5.62;67.83;98555.56;125084;1109;102238;-79
2023/11/25 01:57:43;;;;;;;72.97;39.03;;;;;;;5.64;68.30;98556.50;125097;1108;104311;-79
2023/11/25 02:00:17;;;;;;;74.80;38.90;;;;;;;5.64;67.89;98550.39;124994;1109;102331;-79
2023/11/25 02:02:50;;;;;;;70.65;37.53;;;;;;;5.64;67.96;98561.70;124930;1109;104303;-79
2023/11/25 02:05:22;;;;;;;71.47;38.00;;;;;;;5.64;67.99;98555.59;124928;1109;102202;-79
2023/11/25 02:07:53;;;;;;;71.53;38.57;;;;;;;5.64;68.28;98560.80;124991;1109;105556;-80
2023/11/25 02:10:25;;;;;;;69.77;36.67;;;;;;;5.65;68.49;98562.57;125041;1109;102205;-80
2023/11/25 02:12:57;;;;;;;69.07;36.80;;;;;;;5.66;68.33;98566.94;125036;1107;104219;-80
2023/11/25 02:15:29;;;;;;;65.70;36.43;;;;;;;5.65;68.34;98573.84;125059;1108;102048;-79
2023/11/25 02:18:00;;;;;;;68.43;37.90;;;;;;;5.65;68.37;98579.05;124944;1109;104288;-81
2023/11/25 02:20:36;;;;;;;70.53;35.90;;;;;;;5.65;68.54;98572.98;124870;1108;102105;-76
2023/11/25 02:23:18;;;;;;;68.50;35.67;;;;;;;5.66;68.05;98574.75;124899;1109;102059;-81
2023/11/25 02:25:52;;;;;;;67.20;34.60;;;;;;;5.63;68.27;98565.14;124974;1107;101901;-80
2023/11/25 02:28:24;;;;;;;65.70;35.20;;;;;;;5.61;68.66;98566.83;125231;1107;101843;-78
2023/11/25 02:30:56;;;;;;;68.33;35.27;;;;;;;5.59;68.53;98571.09;125159;1109;102011;-79
2023/11/25 02:33:35;;;;;;;68.13;34.60;;;;;;;5.58;68.96;98571.95;125139;1109;102147;-78
2023/11/25 02:36:08;;;;;;;70.70;35.77;;;;;;;5.55;68.51;98571.88;125130;1109;102018;-78
2023/11/25 02:38:39;;;;;;;68.73;36.53;;;;;;;5.56;68.81;98568.42;124996;1109;103235;-80
2023/11/25 02:41:12;;;;;;;66.00;35.30;;;;;;;5.55;69.13;98564.08;124689;1109;101948;-79
2023/11/25 02:43:44;;;;;;;67.57;35.53;;;;;;;5.56;68.88;98568.42;124885;1107;102110;-79
2023/11/25 02:46:15;;;;;;;69.20;35.77;;;;;;;5.55;68.85;98570.15;124696;1108;102277;-77
2023/11/25 02:48:47;;;;;;;68.30;36.85;;;;;;;5.52;68.95;98577.02;124622;1108;102211;-79
2023/11/25 02:51:19;;;;;;;70.33;38.10;;;;;;;5.47;69.06;98583.80;124586;1109;101970;-79
2023/11/25 02:53:51;;;;;;;67.63;37.93;;;;;;;5.38;69.24;98592.27;124765;1109;102325;-80
2023/11/25 02:56:23;;;;;;;64.93;36.30;;;;;;;5.29;68.91;98589.42;124855;1109;104593;-80
2023/11/25 02:58:54;;;;;;;66.20;35.53;;;;;;;5.19;68.92;98588.31;124704;1108;102629;-80
2023/11/25 03:01:29;;;;;;;70.57;35.37;;;;;;;5.12;69.07;98597.64;124884;1109;102134;-79
2023/11/25 03:04:05;;;;;;;65.43;33.20;;;;;;;5.06;69.36;98596.61;124637;1108;104287;-80
2023/11/25 03:06:37;;;;;;;61.20;34.23;;;;;;;4.98;69.06;98592.06;124823;1108;104217;-79
2023/11/25 03:09:10;;;;;;;64.37;33.83;;;;;;;4.91;69.19;98589.26;124696;1109;104363;-79
2023/11/25 03:11:41;;;;;;;62.77;33.33;;;;;;;4.87;69.61;98590.91;124730;1109;104342;-79
2023/11/25 03:14:15;;;;;;;58.33;31.40;;;;;;;4.81;69.66;98598.53;124691;1109;104197;-79
2023/11/25 03:16:49;;;;;;;59.67;32.73;;;;;;;4.76;69.68;98608.80;124650;1107;104345;-79
2023/11/25 03:19:20;;;;;;;61.42;32.15;;;;;;;4.76;69.36;98600.13;124789;1108;101923;-79
2023/11/25 03:21:53;;;;;;;55.03;30.57;;;;;;;4.77;69.49;98604.46;124883;1108;104230;-79
2023/11/25 03:24:24;;;;;;;59.13;31.00;;;;;;;4.74;69.77;98605.28;124507;1109;103290;-79
2023/11/25 03:26:56;;;;;;;60.37;32.20;;;;;;;4.70;69.45;98598.22;124720;1109;102591;-79
2023/11/25 03:29:27;;;;;;;55.17;29.60;;;;;;;4.65;69.46;98594.62;124824;1109;102321;-79
2023/11/25 03:31:59;;;;;;;58.83;30.30;;;;;;;4.61;69.72;98598.86;125141;1109;101804;-78
2023/11/25 03:34:31;;;;;;;58.20;30.03;;;;;;;4.60;69.73;98599.69;125047;1108;102137;-78
2023/11/25 03:37:02;;;;;;;55.73;28.70;;;;;;;4.63;69.84;98591.11;125051;1108;103234;-78
2023/11/25 03:39:34;;;;;;;53.43;28.30;;;;;;;4.64;69.71;98595.45;125057;1109;102246;-79
2023/11/25 03:42:06;;;;;;;53.87;27.27;;;;;;;4.63;70.40;98601.50;124919;1108;104095;-77
2023/11/25 03:44:38;;;;;;;52.10;28.23;;;;;;;4.63;70.07;98602.38;124675;1109;102116;-81
2023/11/25 03:47:10;;;;;;;51.33;27.50;;;;;;;4.65;69.98;98600.69;124686;1104;101871;-80
2023/11/25 03:49:41;;;;;;;52.17;27.67;;;;;;;4.68;69.90;98595.58;124660;1105;101811;-78
2023/11/25 03:52:12;;;;;;;53.00;27.83;;;;;;;4.71;70.79;98591.33;124862;1109;102385;-79
2023/11/25 03:54:44;;;;;;;50.67;26.80;;;;;;;4.72;70.40;98593.97;124850;1109;104371;-80
2023/11/25 03:57:15;;;;;;;52.60;27.83;;;;;;;4.73;70.14;98592.24;125038;1109;101864;-79
2023/11/25 03:59:47;;;;;;;50.20;28.67;;;;;;;4.74;70.13;98601.81;124894;1105;104222;-79
2023/11/25 04:02:19;;;;;;;53.70;27.17;;;;;;;4.74;69.96;98600.08;124762;1105;104592;-79
2023/11/25 04:04:50;;;;;;;53.07;29.00;;;;;;;4.76;70.63;98593.20;124975;1105;104338;-79
2023/11/25 04:07:22;;;;;;;50.70;27.70;;;;;;;4.76;70.33;98597.53;124720;1108;101991;-79
2023/11/25 04:09:53;;;;;;;49.83;27.03;;;;;;;4.76;70.19;98597.53;124561;1105;102041;-80
2023/11/25 04:12:25;;;;;;;53.03;27.37;;;;;;;4.77;70.53;98589.77;124638;1105;102099;-80
2023/11/25 04:14:57;;;;;;;49.53;27.53;;;;;;;4.80;70.91;98595.06;124714;1109;102042;-79
2023/11/25 04:17:29;;;;;;;51.37;27.60;;;;;;;4.80;71.03;98595.06;124535;1105;102109;-80
2023/11/25 04:20:01;;;;;;;53.57;28.17;;;;;;;4.81;70.42;98601.13;124506;1105;104371;-80
2023/11/25 04:22:32;;;;;;;51.47;28.73;;;;;;;4.81;70.93;98596.80;124575;1105;102060;-80
2023/11/25 04:25:05;;;;;;;51.97;27.57;;;;;;;4.83;70.74;98591.64;124801;1109;104211;-80
2023/11/25 04:27:39;;;;;;;53.97;27.00;;;;;;;4.79;70.38;98597.62;124667;1108;104315;-80
2023/11/25 04:30:14;;;;;;;47.53;26.47;;;;;;;4.76;70.91;98589.73;124676;1108;102052;-81
2023/11/25 04:32:46;;;;;;;50.03;27.17;;;;;;;4.77;70.52;98599.27;124823;1109;104354;-80
2023/11/25 04:35:18;;;;;;;53.43;26.17;;;;;;;4.79;70.70;98605.41;124847;1107;102089;-80
2023/11/25 04:37:49;;;;;;;49.20;26.47;;;;;;;4.80;70.92;98605.45;124629;1108;102028;-80
2023/11/25 04:40:21;;;;;;;47.13;25.53;;;;;;;4.81;71.17;98612.39;124687;1105;104236;-81
2023/11/25 04:42:52;;;;;;;50.40;26.90;;;;;;;4.79;70.99;98608.01;124975;1105;104233;-79
2023/11/25 04:45:25;;;;;;;51.87;26.60;;;;;;;4.76;71.25;98607.92;124725;1107;104223;-80
2023/11/25 04:47:56;;;;;;;52.77;26.40;;;;;;;4.71;70.96;98610.39;124811;1109;104631;-80
2023/11/25 04:50:29;;;;;;;49.77;26.10;;;;;;;4.64;71.27;98603.23;124757;1109;104364;-79
2023/11/25 04:53:00;;;;;;;48.83;25.13;;;;;;;4.57;71.28;98598.72;124736;1109;102112;-81
2023/11/25 04:55:32;;;;;;;49.73;25.70;;;;;;;4.51;71.39;98596.81;124870;1107;104280;-82
2023/11/25 04:58:04;;;;;;;50.53;25.07;;;;;;;4.48;70.98;98596.73;124802;1108;102099;-84
2023/11/25 05:00:36;;;;;;;50.20;24.47;;;;;;;4.46;71.28;98598.41;124704;1109;104211;-80
2023/11/25 05:03:07;;;;;;;49.47;25.57;;;;;;;4.42;71.08;98588.75;125014;1108;104201;-78
2023/11/25 05:05:39;;;;;;;48.90;25.40;;;;;;;4.39;71.44;98581.74;124812;1108;102406;-79
2023/11/25 05:08:10;;;;;;;49.00;24.57;;;;;;;4.42;71.31;98588.75;124751;1105;104374;-80
2023/11/25 05:10:42;;;;;;;48.63;24.97;;;;;;;4.44;71.57;98587.98;124743;1105;104377;-79
2023/11/25 05:13:13;;;;;;;54.40;24.63;;;;;;;4.45;71.13;98587.12;124771;1108;104246;-80
2023/11/25 05:15:45;;;;;;;51.33;25.80;;;;;;;4.42;71.23;98591.35;124510;1107;104251;-80
2023/11/25 05:18:17;;;;;;;50.40;26.00;;;;;;;4.37;71.49;98590.34;124679;1108;102029;-81
2023/11/25 05:20:49;;;;;;;52.80;27.27;;;;;;;4.31;71.44;98594.50;124655;1108;104252;-78
2023/11/25 05:23:20;;;;;;;46.23;25.33;;;;;;;4.28;71.95;98602.20;124571;1108;104261;-81
2023/11/25 05:25:51;;;;;;;50.70;25.77;;;;;;;4.25;72.03;98598.64;124617;1106;104268;-81
2023/11/25 05:28:23;;;;;;;47.97;25.20;;;;;;;4.23;71.75;98601.19;124476;1106;102345;-80
2023/11/25 05:30:54;;;;;;;52.80;26.10;;;;;;;4.23;71.54;98608.97;124506;1105;104185;-80
2023/11/25 05:33:26;;;;;;;39.95;22.70;;;;;;;4.22;71.54;98604.60;124520;1109;104236;-80
2023/11/25 05:35:57;;;;;;;44.23;23.13;;;;;;;4.21;71.83;98618.44;124568;1108;101900;-80
2023/11/25 05:38:29;;;;;;;40.20;22.00;;;;;;;4.17;71.96;98629.55;124544;1109;104227;-79
2023/11/25 05:41:02;;;;;;;45.25;23.50;;;;;;;4.12;71.69;98623.34;124614;1108;101884;-79
2023/11/25 05:43:33;;;;;;;44.53;22.33;;;;;;;4.13;71.97;98625.12;124531;1108;101804;-79
2023/11/25 05:46:05;;;;;;;45.73;20.77;;;;;;;4.08;71.80;98637.05;124470;1109;102096;-78
2023/11/25 05:48:36;;;;;;;38.47;20.57;;;;;;;4.06;72.52;98636.13;124442;1108;104332;-80
2023/11/25 05:51:09;;;;;;;36.30;19.83;;;;;;;4.06;72.00;98634.41;124369;1109;102372;-80
2023/11/25 05:53:40;;;;;;;38.07;19.50;;;;;;;4.06;72.64;98637.00;124343;1109;101855;-78
2023/11/25 05:56:12;;;;;;;36.30;19.33;;;;;;;4.05;72.01;98636.95;124362;1109;104293;-79
2023/11/25 05:58:43;;;;;;;40.97;19.87;;;;;;;4.07;72.05;98640.50;124270;1108;102044;-80
2023/11/25 06:01:16;;;;;;;37.27;18.27;;;;;;;4.09;73.00;98659.59;124289;1105;103136;-81
2023/11/25 06:03:50;;;;;;;36.53;18.00;;;;;;;4.10;72.38;98656.17;124401;1106;104304;-81
2023/11/25 06:06:22;;;;;;;37.57;17.80;;;;;;;4.12;72.73;98662.28;124388;1105;104227;-80
2023/11/25 06:08:54;;;;;;;36.63;17.23;;;;;;;4.15;72.64;98667.57;124343;1109;101842;-78
2023/11/25 06:11:27;;;;;;;36.93;16.90;;;;;;;4.17;72.40;98678.88;124352;1109;102070;-79
2023/11/25 06:13:59;;;;;;;33.95;17.30;;;;;;;4.19;72.55;98679.83;124335;1105;104182;-79
2023/11/25 06:16:30;;;;;;;32.87;16.80;;;;;;;4.22;72.52;98686.81;124415;1105;102135;-79
2023/11/25 06:19:03;;;;;;;34.35;17.15;;;;;;;4.22;72.73;98685.09;124377;1105;101730;-78
2023/11/25 06:21:35;;;;;;;35.30;17.77;;;;;;;4.26;72.90;98684.36;124333;1106;104339;-79
2023/11/25 06:24:07;;;;;;;37.03;16.83;;;;;;;4.29;73.00;98686.19;124568;1108;104191;-79
2023/11/25 06:26:39;;;;;;;34.27;17.20;;;;;;;4.32;73.32;98686.28;124495;1108;101964;-80
2023/11/25 06:29:10;;;;;;;34.93;17.40;;;;;;;4.35;73.10;98693.27;124478;1109;104223;-80
2023/11/25 06:31:45;;;;;;;36.13;17.53;;;;;;;4.37;73.00;98681.23;124401;1109;104261;-80
2023/11/25 06:34:17;;;;;;;35.57;17.20;;;;;;;4.38;73.35;98678.69;124448;1109;102220;-80
2023/11/25 06:36:48;;;;;;;35.37;17.67;;;;;;;4.42;73.14;98672.73;124579;1105;101922;-80
2023/11/25 06:39:22;;;;;;;35.67;17.10;;;;;;;4.46;73.25;98674.59;124502;1105;102869;-78
2023/11/25 06:41:54;;;;;;;33.30;15.77;;;;;;;4.48;73.24;98678.11;124620;1108;104239;-81
2023/11/25 06:44:25;;;;;;;35.60;16.13;;;;;;;4.50;73.39;98683.36;124581;1106;104287;-80
2023/11/25 06:46:57;;;;;;;30.83;15.83;;;;;;;4.55;73.09;98679.20;124612;1105;104233;-81
2023/11/25 06:49:28;;;;;;;34.00;15.50;;;;;;;4.60;73.02;98667.23;124656;1105;101977;-79
2023/11/25 06:52:00;;;;;;;32.80;15.27;;;;;;;4.67;73.37;98655.30;124495;1105;102080;-79
2023/11/25 06:54:31;;;;;;;29.37;13.50;;;;;;;4.75;73.33;98645.13;124644;1108;102246;-79
2023/11/25 06:57:03;;;;;;;28.10;13.47;;;;;;;4.82;73.51;98644.48;124690;1108;104219;-79
2023/11/25 06:59:35;;;;;;;29.50;12.30;;;;;;;4.88;73.75;98644.66;124656;1108;104194;-78
2023/11/25 07:02:06;;;;;;;29.63;12.83;;;;;;;4.95;73.59;98641.38;124655;1106;104230;-80
2023/11/25 07:04:38;;;;;;;29.10;13.70;;;;;;;5.02;73.51;98637.25;124706;1106;101794;-81
2023/11/25 07:07:09;;;;;;;28.97;12.53;;;;;;;5.09;73.62;98633.96;124515;1105;104079;-81
2023/11/25 07:09:41;;;;;;;24.40;11.20;;;;;;;5.13;73.31;98619.34;124498;1106;104259;-83
2023/11/25 07:12:15;;;;;;;22.57;11.50;;;;;;;5.16;73.64;98630.70;124736;1105;104137;-81
2023/11/25 07:14:47;;;;;;;25.35;9.95;;;;;;;5.21;73.37;98634.30;124412;1106;104674;-79
2023/11/25 07:17:19;;;;;;;22.67;9.87;;;;;;;5.25;73.50;98627.48;124514;1109;102585;-80
2023/11/25 07:19:51;;;;;;;19.23;9.37;;;;;;;5.28;73.31;98624.93;124630;1108;102121;-79
2023/11/25 07:22:22;;;;;;;24.00;9.30;;;;;;;5.29;73.08;98624.10;124508;1105;102103;-79
2023/11/25 07:24:54;;;;;;;23.57;9.43;;;;;;;5.31;72.59;98629.34;124537;1106;102080;-80
2023/11/25 07:27:26;;;;;;;22.13;8.97;;;;;;;5.31;73.26;98632.81;124516;1105;101961;-80
2023/11/25 07:30:00;;;;;;;24.23;8.90;;;;;;;5.32;72.88;98637.19;124541;1109;102146;-79
2023/11/25 07:32:33;;;;;;;23.03;9.37;;;;;;;5.34;73.16;98638.09;124480;1105;104115;-78
2023/11/25 07:35:07;;;;;;;25.17;11.40;;;;;;;5.38;72.73;98637.35;124456;1108;104114;-80
2023/11/25 07:37:39;;;;;;;25.37;10.37;;;;;;;5.38;72.85;98631.28;124477;1106;101839;-78
2023/11/25 07:40:14;;;;;;;24.03;9.63;;;;;;;5.40;72.59;98626.98;124505;1105;104206;-79
2023/11/25 07:42:48;;;;;;;26.05;11.15;;;;;;;5.39;72.83;98638.22;124411;1107;104320;-79
2023/11/25 07:45:20;;;;;;;23.23;10.20;;;;;;;5.41;72.60;98657.38;124419;1106;101836;-80
2023/11/25 07:47:51;;;;;;;23.47;9.90;;;;;;;5.41;72.72;98667.78;124290;1109;104319;-77
2023/11/25 07:50:23;;;;;;;24.20;9.47;;;;;;;5.43;72.20;98666.09;124361;1105;104255;-80
2023/11/25 07:52:55;;;;;;;21.93;8.90;;;;;;;5.44;72.20;98667.86;124416;1106;104195;-81
2023/11/25 07:55:26;;;;;;;23.03;9.10;;;;;;;5.50;72.62;98657.62;124388;1108;102301;-78
2023/11/25 07:57:58;;;;;;;19.85;8.70;;;;;;;5.52;72.48;98653.33;124511;1105;104237;-77
2023/11/25 08:00:30;;;;;;;20.03;7.93;;;;;;;5.55;72.76;98666.41;124307;1109;102033;-81
2023/11/25 08:03:02;;;;;;;20.57;7.93;;;;;;;5.57;72.38;98662.13;124432;1106;101887;-79
2023/11/25 08:05:34;;;;;;;20.03;8.33;;;;;;;5.56;72.39;98657.78;124594;1105;104207;-79
2023/11/25 08:08:06;;;;;;;20.90;7.30;;;;;;;5.58;72.53;98655.22;124324;1109;104355;-78
2023/11/25 08:10:37;;;;;;;18.83;7.73;;;;;;;5.61;72.30;98655.30;124283;1109;104197;-78
2023/11/25 08:13:10;;;;;;;18.97;7.23;;;;;;;5.64;72.11;98652.78;124453;1106;104189;-78
2023/11/25 08:15:42;;;;;;;17.13;6.73;;;;;;;5.68;72.33;98656.33;124454;1108;102099;-80
2023/11/25 08:18:15;;;;;;;19.33;6.10;;;;;;;5.70;72.19;98652.94;124459;1109;102214;-79
2023/11/25 08:20:47;;;;;;;19.62;5.53;;;;;;;5.76;72.38;98660.00;124368;1109;104309;-78
2023/11/25 08:23:19;;;;;;;14.77;5.63;;;;;;;5.81;72.65;98649.70;124423;1106;104243;-79
2023/11/25 08:25:51;;;;;;;12.70;4.70;;;;;;;5.84;71.81;98640.23;124355;1106;110922;-79
2023/11/25 08:28:22;;;;;;;12.60;4.80;;;;;;;5.82;71.16;98644.53;124352;1106;102292;-82
2023/11/25 08:30:54;;;;;;;11.67;4.67;;;;;;;5.84;71.70;98649.78;124415;1106;102091;-80
2023/11/25 08:33:26;;;;;;;12.47;4.40;;;;;;;5.86;71.58;98645.48;124278;1108;101963;-80
2023/11/25 08:35:57;;;;;;;14.93;4.57;;;;;;;5.90;71.82;98642.99;124240;1108;101849;-79
2023/11/25 08:38:29;;;;;;;17.37;4.73;;;;;;;5.96;71.43;98652.69;124313;1109;103082;-80
2023/11/25 08:41:00;;;;;;;17.00;4.90;;;;;;;6.02;71.54;98652.87;124468;1109;104639;-78
2023/11/25 08:43:32;;;;;;;15.30;5.27;;;;;;;6.08;71.55;98658.23;124371;1108;103012;-80
2023/11/25 08:46:04;;;;;;;13.50;5.03;;;;;;;6.14;71.44;98656.60;124355;1109;102395;-79
2023/11/25 08:48:36;;;;;;;13.93;4.87;;;;;;;6.15;71.42;98656.64;124271;1108;104198;-79
2023/11/25 08:51:10;;;;;;;16.40;5.17;;;;;;;6.16;71.42;98657.55;124417;1108;102480;-80
2023/11/25 08:53:44;;;;;;;18.57;5.50;;;;;;;6.17;71.89;98668.00;124309;1106;104326;-81
2023/11/25 08:56:16;;;;;;;12.75;5.35;;;;;;;6.21;71.09;98672.41;124400;1105;102102;-79
2023/11/25 08:58:47;;;;;;;18.27;5.50;;;;;;;6.27;71.46;98682.98;124276;1105;102060;-79
2023/11/25 09:01:20;;;;;;;13.17;5.67;;;;;;;6.32;70.87;98677.88;124388;1105;104265;-81
2023/11/25 09:03:51;;;;;;;11.77;4.97;;;;;;;6.33;70.97;98671.83;124376;1105;101855;-79
2023/11/25 09:06:23;;;;;;;13.20;5.23;;;;;;;6.37;71.32;98678.85;124428;1105;104316;-79
2023/11/25 09:08:54;;;;;;;14.93;5.40;;;;;;;6.32;70.31;98675.27;124474;1105;104348;-77
2023/11/25 09:11:26;;;;;;;13.83;5.03;;;;;;;6.28;70.36;98676.94;124303;1105;102229;-80
2023/11/25 09:13:58;;;;;;;12.20;5.00;;;;;;;6.26;70.32;98683.84;124477;1106;101805;-82
2023/11/25 09:16:30;;;;;;;14.85;5.10;;;;;;;6.26;70.96;98680.34;124326;1109;102008;-81
2023/11/25 09:19:02;;;;;;;13.07;4.83;;;;;;;6.26;70.93;98678.63;124422;1105;104213;-80
2023/11/25 09:21:34;;;;;;;16.53;4.63;;;;;;;6.27;70.96;98679.50;124380;1109;102060;-81
2023/11/25 09:24:06;;;;;;;15.27;5.10;;;;;;;6.26;70.33;98678.63;124345;1109;104198;-82
2023/11/25 09:26:38;;;;;;;10.60;4.43;;;;;;;6.28;70.18;98683.88;124376;1105;103468;-80
2023/11/25 09:29:10;;;;;;;10.97;4.80;;;;;;;6.28;70.29;98691.69;124402;1109;102265;-81
2023/11/25 09:31:41;;;;;;;10.67;4.63;;;;;;;6.30;70.37;98695.20;124389;1106;104220;-83
2023/11/25 09:34:18;;;;;;;13.37;4.53;;;;;;;6.27;70.34;98693.39;124428;1106;104188;-84
2023/11/25 09:36:49;;;;;;;13.85;5.30;;;;;;;6.26;70.20;98683.84;124314;1108;101813;-82
2023/11/25 09:39:21;;;;;;;16.07;5.30;;;;;;;6.23;70.38;98688.08;124353;1105;102342;-83
2023/11/25 09:41:53;;;;;;;13.73;5.43;;;;;;;6.22;69.65;98687.20;124423;1109;102047;-79
2023/11/25 09:44:24;;;;;;;14.80;5.33;;;;;;;6.21;70.69;98685.44;124375;1105;102208;-81
2023/11/25 09:46:56;;;;;;;14.43;5.10;;;;;;;6.23;70.54;98693.28;124377;1105;104309;-82
2023/11/25 09:49:28;;;;;;;15.17;5.13;;;;;;;6.20;70.08;98690.61;124411;1107;101951;-81
2023/11/25 09:52:04;;;;;;;14.30;5.80;;;;;;;6.21;70.41;98692.38;124410;1109;104178;-82
2023/11/25 09:54:36;;;;;;;13.03;5.27;;;;;;;6.25;70.17;98696.83;124479;1106;104310;-81
2023/11/25 09:57:09;;;;;;;13.97;5.30;;;;;;;6.28;70.66;98694.30;124562;1108;102119;-82
2023/11/25 09:59:41;;;;;;;12.83;4.90;;;;;;;6.29;70.31;98696.03;124457;1109;102337;-82
2023/11/25 10:02:16;;;;;;;13.43;4.90;;;;;;;6.25;70.47;98692.48;124457;1106;102343;-80
2023/11/25 10:04:50;;;;;;;13.17;4.50;;;;;;;6.23;70.22;98693.28;124424;1109;103843;-80
2023/11/25 10:07:20;;;;;;;;;;;;;;;6.17;70.77;98685.33;124514;1107;102479;-82
2023/11/25 10:09:52;;;;;;;12.73;4.83;;;;;;;6.16;70.67;98678.38;124453;1108;101826;-82
2023/11/25 10:12:23;;;;;;;11.03;4.30;;;;;;;6.13;70.32;98673.96;124501;1105;102339;-83
2023/11/25 10:14:59;;;;;;;13.20;4.50;;;;;;;6.04;70.70;98669.40;124299;1109;101913;-80
2023/11/25 10:17:30;;;;;;;14.93;4.47;;;;;;;5.97;70.80;98670.11;124369;1108;102167;-79
2023/11/25 10:20:10;;;;;;;9.10;4.35;;;;;;;5.93;71.08;98661.29;124380;1109;104197;-78
2023/11/25 10:22:49;;;;;;;12.10;5.00;;;;;;;5.97;71.13;98648.38;124439;1106;101802;-81
2023/11/25 10:25:22;;;;;;;8.27;4.20;;;;;;;5.96;71.07;98657.89;124299;1105;102058;-79
2023/11/25 10:27:54;;;;;;;9.67;4.10;;;;;;;5.85;71.14;98657.63;124241;1105;102287;-79
2023/11/25 10:30:28;;;;;;;14.95;4.40;;;;;;;5.78;70.95;98653.13;124445;1105;104284;-82
2023/11/25 10:33:03;;;;;;;9.18;3.92;;;;;;;5.73;71.19;98649.51;124333;1108;101945;-77
2023/11/25 10:35:37;;;;;;;13.33;3.77;;;;;;;5.67;71.17;98641.55;124209;1109;102055;-78
2023/11/25 10:38:12;;;;;;;10.70;3.83;;;;;;;5.58;71.14;98650.02;124321;1108;104255;-79
2023/11/25 10:40:43;;;;;;;9.27;3.73;;;;;;;5.52;71.37;98636.84;124185;1106;104194;-80
2023/11/25 10:43:15;;;;;;;9.47;4.00;;;;;;;5.45;71.18;98627.11;124333;1109;101907;-80
2023/11/25 10:45:46;;;;;;;11.33;4.57;;;;;;;5.42;71.81;98619.23;124346;1109;103223;-79
2023/11/25 10:48:21;;;;;;;9.23;3.40;;;;;;;5.42;72.94;98614.89;124135;1105;101900;-79
2023/11/25 10:50:52;;;;;;;8.90;4.17;;;;;;;5.27;72.12;98612.79;124131;1106;102249;-78
2023/11/25 10:53:27;;;;;;;11.37;4.27;;;;;;;5.20;72.35;98616.05;124310;1105;101888;-78
2023/11/25 10:56:01;;;;;;;10.90;3.90;;;;;;;5.12;72.12;98613.25;124104;1109;101881;-77
2023/11/25 10:58:35;;;;;;;9.93;4.00;;;;;;;5.07;72.60;98611.38;124037;1108;104230;-78
2023/11/25 11:01:08;;;;;;;11.37;4.10;;;;;;;5.06;72.60;98617.41;124160;1105;104198;-77
2023/11/25 11:03:54;;;;;;;8.85;3.90;;;;;;;5.03;72.30;98621.69;124076;1108;104224;-79
2023/11/25 11:06:30;;;;;;;10.23;3.67;;;;;;;5.06;73.11;98620.01;124120;1105;104237;-76
2023/11/25 11:09:06;;;;;;;11.20;3.93;;;;;;;5.10;73.25;98614.06;124259;1105;102042;-78
2023/11/25 11:11:46;;;;;;;14.00;4.35;;;;;;;5.14;73.04;98623.69;124150;1109;104467;-77
2023/11/25 11:14:20;;;;;;;11.77;4.70;;;;;;;5.16;72.81;98622.03;124166;1108;101833;-78
2023/11/25 11:17:03;;;;;;;10.13;3.75;;;;;;;5.14;73.00;98626.28;124136;1105;104234;-77
2023/11/25 11:19:42;;;;;;;10.70;3.33;;;;;;;5.00;73.79;98618.11;124163;1105;107111;-77
2023/11/25 11:22:14;;;;;;;9.10;3.35;;;;;;;4.87;73.50;98619.49;124190;1106;101938;-79
2023/11/25 11:25:04;;;;;;;7.13;3.60;;;;;;;4.86;73.29;98618.62;124233;1109;104264;-78
2023/11/25 11:27:42;;;;;;;11.87;3.40;;;;;;;4.87;73.66;98622.09;124248;1109;101836;-78
2023/11/25 11:30:22;;;;;;;8.70;3.60;;;;;;;4.84;73.25;98611.61;124232;1109;104339;-79
2023/11/25 11:32:57;;;;;;;9.03;3.80;;;;;;;4.75;73.77;98600.95;124081;1109;104208;-76
2023/11/25 11:35:38;;;;;;;13.63;3.97;;;;;;;4.70;74.95;98598.22;124106;1107;104204;-78